Monday, December 22, 2014
02:46 UTC
  |  Log In   |  Register Free
Airport Search:

Vidalia Regional Airport
(KVDI)

Vidalia Regional Airport Diagram
No Airport Diagram Available

FAA data valid effective November 13, 2014 - January 08, 2015 (unless otherwise noted).

 
 
 
 
 
 
 
 
 
 
 
 
 
 

Current Aviation Weather for Vidalia Regional Airport (KVDI)

The most recent METAR observation for KVDI was updated at: 2122
METAR Summary (Translated METAR)
KVDI
182115Z AUTO 24004KT 10SM CLR 17/02 A3008 RMK AO2
KAZE
182055Z AUTO 00000KT 10SM CLR 19/01 A3007 RMK AO2 T01940009
(23.2 nm SW from KVDI)
KSBO
182115Z AUTO 27003KT 10SM CLR 18/03 A3009 RMK AO2
(25 nm NE from KVDI)
TAF
No TAF information found within 50 nm of KVDI
  Airport Weather Conditions for KVDI

 Current Weather at VDI
46° F
Drizzle
Northeast winds at 8.1 mph
VDI NOAA Radar

Pressure: 30.11 in
Humidity: 100%
Wind: Northeast at 8.1 MPH (7 KT)
Dew Point: 46.4°F
Visibility: 3.00 mi


Airport Weather Forecast for KVDI

Translated METAR and TAF for KVDI
Translated METAR for KVDI (0247 UTC 22 December 2014)
found at http://aviationweather.gov/adds/metars/
 
METAR text: KVDI 220235Z AUTO 03006KT 7SM OVC004 08/08 A3011 RMK AO2
Conditions at: KVDI (VIDALIA MUNI , GA, US) observed 0235 UTC 22 December 2014
Temperature: 8.0°C (46°F)
Dewpoint: 8.0°C (46°F) [RH = 100%]
Pressure (altimeter): 30.11 inches Hg (1019.7 mb)
Winds: from the NNE (30 degrees) at 7 MPH (6 knots; 3.1 m/s)
Visibility: 7 miles (11 km)
Ceiling: 400 feet AGL
Clouds: overcast cloud deck at 400 feet AGL
Weather: automated observation with no human augmentation;
there may or may not be significant weather present at this time
Translated TAF for KVDI

There is no translated TAF available for this airport

Find All Airport Services Find A Hotel Find A Rental Car Find A Golf Course Find A Restaurant $100 Hamburger



FBO's on the Field
FBO Company Facility Photos Services Transportation Aviation Fuel Prices: Prices include tax
Catering Weather Repair Courtesy Rental Type 100LL JetA JetA+ MOGAS 8087
 
Vidalia Regional Airport

This FBO has not yet been rated
FS:Phillips 66
Last Updated: Dec-08
Login to update fuel prices
SS:
Contact Vidalia Regional AirportMore FBO Information
 
Add another FBO Facility Photos Catering Weather Repair Courtesy Rental Type 100LL JetA JetA+ MOGAS 8087
Services Transportation Aviation Fuel Prices: Prices include tax


model-print
model-print
model-print
model-print